Roper, Georgia
Current Conditions -  °F | °C
As of 3:35 AM on Monday 22 Dec 2014 (Local Time) from KAZE Reporting Station
Haze Haze  
Wind Chill: 47°   Ceiling: 200
Heat Index: 48°   Visibility: 3mi
Dew Point: 48°   Wind: 5mph
Humidity: 100%   Direction: 80°E
Pressure: 30.02"   Gusts: NA
Location:  31.8468°N, 82.5686°W
Report Text: KAZE 220835Z AUTO 08004KT 3SM BR OVC002 09/09 A3002 RMK AO2 T00910091
Loading
Personal Weather Stations






























Interactive Weather Map New forecast layout! Learn more

10-Day Weather Forecast

Advertisements
Track Severe Weather on mobile